createdAt,value
2022-08-27T00:05:14.005Z,19.50
2022-08-27T00:11:18.181Z,19.50
2022-08-27T00:17:19.975Z,19.50
2022-08-27T00:23:21.699Z,19.50
2022-08-27T00:29:23.993Z,19.50
2022-08-27T00:35:26.917Z,19.50
2022-08-27T00:41:28.700Z,19.40
2022-08-27T00:47:33.257Z,19.40
2022-08-27T00:53:36.092Z,19.30
2022-08-27T00:59:39.075Z,19.20
2022-08-27T01:05:43.086Z,19.20
2022-08-27T01:11:47.780Z,19.20
2022-08-27T01:17:50.027Z,19.10
2022-08-27T01:24:04.597Z,19.10
2022-08-27T01:30:09.690Z,19.10
2022-08-27T01:36:11.697Z,19.10
2022-08-27T01:42:20.497Z,19.10
2022-08-27T01:48:22.727Z,19.10
2022-08-27T01:54:24.515Z,19.10
2022-08-27T02:00:33.103Z,19.10
2022-08-27T02:06:34.911Z,19.00
2022-08-27T02:12:36.807Z,19.00
2022-08-27T02:18:41.706Z,19.00
2022-08-27T02:24:44.758Z,19.00
2022-08-27T02:30:46.510Z,19.00
2022-08-27T02:36:48.320Z,18.90
2022-08-27T02:42:50.291Z,18.90
2022-08-27T02:48:52.100Z,18.80
2022-08-27T02:54:53.830Z,18.80
2022-08-27T03:00:56.835Z,18.70
2022-08-27T03:06:59.183Z,18.70
2022-08-27T03:13:01.262Z,18.70
2022-08-27T03:19:06.441Z,18.70
2022-08-27T03:25:09.739Z,18.60
2022-08-27T03:31:20.689Z,18.70
2022-08-27T03:37:22.510Z,18.60
2022-08-27T03:43:24.523Z,18.50
2022-08-27T03:49:26.290Z,18.60
2022-08-27T03:55:28.226Z,18.60
2022-08-27T04:01:29.961Z,18.60
2022-08-27T04:07:32.985Z,18.50
2022-08-27T04:13:34.789Z,18.50
2022-08-27T04:19:36.645Z,18.50
2022-08-27T04:25:43.807Z,18.40
2022-08-27T04:31:45.649Z,18.30
2022-08-27T04:37:47.489Z,18.20
2022-08-27T04:43:52.445Z,18.30
2022-08-27T04:49:54.143Z,18.30
2022-08-27T04:55:57.208Z,18.30
2022-08-27T05:02:01.435Z,18.20
2022-08-27T05:08:07.007Z,18.20
2022-08-27T05:14:13.876Z,18.10
2022-08-27T05:20:15.698Z,18.10
2022-08-27T05:26:18.259Z,18.10
2022-08-27T05:32:19.997Z,18.00
2022-08-27T05:38:23.104Z,18.00
2022-08-27T05:44:40.530Z,18.00
2022-08-27T05:50:44.284Z,17.90
2022-08-27T05:56:46.916Z,17.90
2022-08-27T06:02:48.834Z,18.00
2022-08-27T06:08:52.601Z,18.00
2022-08-27T06:14:54.490Z,18.00
2022-08-27T06:21:07.362Z,18.00
2022-08-27T06:27:17.906Z,18.00
2022-08-27T06:33:21.157Z,18.00
2022-08-27T06:39:22.872Z,18.00
2022-08-27T06:45:24.792Z,18.00
2022-08-27T06:51:29.980Z,18.00
2022-08-27T06:57:32.244Z,17.90
2022-08-27T07:03:34.075Z,18.00
2022-08-27T07:09:35.990Z,17.90
2022-08-27T07:15:42.050Z,18.10
2022-08-27T07:21:44.380Z,18.40
2022-08-27T07:27:50.676Z,18.50
2022-08-27T07:33:53.373Z,18.60
2022-08-27T07:39:55.214Z,18.70
2022-08-27T07:46:00.646Z,18.60
2022-08-27T07:52:03.837Z,18.40
2022-08-27T07:58:05.847Z,18.50
2022-08-27T08:04:16.935Z,18.50
2022-08-27T08:10:24.710Z,18.50
2022-08-27T08:16:31.440Z,18.60
2022-08-27T08:22:33.736Z,18.70
2022-08-27T08:28:37.087Z,18.80
2022-08-27T08:34:38.983Z,18.90
2022-08-27T08:40:44.013Z,19.10
2022-08-27T08:47:06.738Z,19.30
2022-08-27T08:53:27.523Z,19.40
2022-08-27T08:59:39.972Z,19.60
2022-08-27T09:53:50.366Z,19.10
2022-08-27T09:59:55.122Z,19.30
2022-08-27T10:05:57.944Z,19.40
2022-08-27T10:12:10.492Z,19.80
2022-08-27T10:22:05.664Z,20.10
2022-08-27T10:28:33.316Z,20.10
2022-08-27T10:34:50.061Z,20.30
2022-08-27T10:41:11.249Z,20.70
2022-08-27T10:47:30.487Z,21.10
2022-08-27T10:53:44.215Z,21.40
2022-08-27T11:00:10.975Z,21.30
2022-08-27T11:06:21.222Z,21.30
2022-08-27T11:12:30.702Z,21.50
2022-08-27T11:18:52.147Z,21.70
2022-08-27T11:25:23.670Z,21.60
2022-08-27T11:31:36.603Z,21.90
2022-08-27T11:37:51.736Z,22.30
2022-08-27T11:43:54.455Z,22.80
2022-08-27T11:50:02.397Z,23.00
2022-08-27T11:56:35.724Z,23.40
2022-08-27T12:02:40.794Z,23.50
2022-08-27T12:08:42.830Z,22.90
2022-08-27T12:15:06.081Z,22.80
2022-08-27T12:21:22.392Z,22.40
2022-08-27T12:27:24.534Z,22.00
2022-08-27T12:33:50.577Z,21.90
2022-08-27T12:39:56.092Z,21.90
2022-08-27T12:46:19.725Z,21.90
2022-08-27T12:52:40.550Z,22.00
2022-08-27T12:59:02.525Z,21.90
2022-08-27T13:05:10.276Z,21.70
2022-08-27T13:11:21.782Z,21.60
2022-08-27T13:17:24.587Z,21.60
2022-08-27T13:23:28.628Z,21.30
2022-08-27T13:29:31.266Z,21.20
2022-08-27T13:35:34.422Z,20.90
2022-08-27T13:41:38.479Z,20.80
2022-08-27T13:47:45.474Z,20.80
2022-08-27T13:54:07.462Z,20.80
2022-08-27T14:00:17.344Z,20.60
2022-08-27T14:06:41.136Z,20.50
2022-08-27T14:12:43.417Z,20.50
2022-08-27T14:19:16.478Z,20.30
2022-08-27T14:25:22.379Z,20.20
2022-08-27T14:31:24.922Z,20.10
2022-08-27T14:37:26.849Z,20.00
2022-08-27T14:43:28.734Z,20.00
2022-08-27T14:49:36.592Z,20.00
2022-08-27T14:55:38.718Z,20.10
2022-08-27T15:01:40.561Z,20.20
2022-08-27T15:07:45.685Z,20.30
2022-08-27T15:13:49.990Z,20.30
2022-08-27T15:19:51.747Z,20.40
2022-08-27T15:25:53.510Z,20.70
2022-08-27T15:31:55.365Z,21.00
2022-08-27T15:37:57.870Z,21.30
2022-08-27T15:43:59.797Z,21.80
2022-08-27T15:50:01.953Z,21.90
2022-08-27T15:56:06.069Z,21.90
2022-08-27T16:02:15.223Z,21.90
2022-08-27T16:08:17.622Z,21.80
2022-08-27T16:14:19.385Z,21.60
2022-08-27T16:20:22.733Z,21.30
2022-08-27T16:26:24.686Z,21.00
2022-08-27T16:32:28.910Z,20.80
2022-08-27T16:38:30.679Z,20.70
2022-08-27T16:44:34.344Z,20.60
2022-08-27T16:50:36.719Z,20.60
2022-08-27T16:56:40.320Z,20.60
2022-08-27T17:02:42.535Z,20.60
2022-08-27T17:08:47.706Z,20.60
2022-08-27T17:14:51.438Z,20.50
2022-08-27T17:20:54.209Z,20.30
2022-08-27T17:26:56.219Z,20.20
2022-08-27T17:32:58.015Z,20.10
2022-08-27T17:39:00.092Z,20.00
2022-08-27T17:45:03.013Z,19.80
2022-08-27T17:51:05.223Z,19.80
2022-08-27T17:57:20.155Z,19.80
2022-08-27T18:03:22.358Z,19.70
2022-08-27T18:09:24.094Z,19.70
2022-08-27T18:15:32.155Z,19.50
2022-08-27T18:21:34.521Z,19.50
2022-08-27T18:27:42.994Z,19.40
2022-08-27T18:33:44.962Z,19.40
2022-08-27T18:39:46.810Z,19.40
2022-08-27T18:45:48.622Z,19.30
2022-08-27T18:51:52.660Z,19.30
2022-08-27T18:57:54.856Z,19.30
2022-08-27T19:03:57.311Z,19.30
2022-08-27T19:09:59.586Z,19.30
2022-08-27T19:16:06.000Z,19.20
2022-08-27T19:22:08.023Z,19.20
2022-08-27T19:28:09.882Z,19.10
2022-08-27T19:34:11.737Z,19.10
2022-08-27T19:40:13.812Z,19.10
2022-08-27T19:46:22.146Z,19.10
2022-08-27T19:52:24.259Z,19.10
2022-08-27T19:58:26.074Z,19.00
2022-08-27T20:04:32.944Z,19.00
2022-08-27T20:10:36.975Z,19.00
2022-08-27T20:16:39.495Z,19.00
2022-08-27T20:22:41.908Z,18.90
2022-08-27T20:28:43.870Z,18.90
2022-08-27T20:34:45.772Z,18.80
2022-08-27T20:40:47.773Z,18.80
2022-08-27T20:46:52.121Z,18.80
2022-08-27T20:52:54.123Z,18.80
2022-08-27T20:59:14.238Z,18.70
2022-08-27T21:05:18.087Z,18.70
2022-08-27T21:11:19.897Z,18.60
2022-08-27T21:17:22.081Z,18.60
2022-08-27T21:23:25.282Z,18.60
2022-08-27T21:29:27.055Z,18.60
2022-08-27T21:35:31.440Z,18.50
2022-08-27T21:41:37.197Z,18.40
2022-08-27T21:47:39.717Z,18.30
2022-08-27T21:53:44.207Z,18.20
2022-08-27T21:59:48.307Z,18.10
2022-08-27T22:05:51.443Z,18.10
2022-08-27T22:11:53.496Z,18.10
2022-08-27T22:17:56.282Z,18.00
2022-08-27T22:23:58.476Z,18.00
2022-08-27T22:30:01.389Z,18.00
2022-08-27T22:36:03.624Z,18.00
2022-08-27T22:42:05.851Z,17.90
2022-08-27T22:48:07.650Z,17.80
2022-08-27T22:54:09.457Z,17.70
2022-08-27T23:00:15.442Z,17.70
2022-08-27T23:06:17.501Z,17.50
2022-08-27T23:12:19.885Z,17.40
2022-08-27T23:18:21.704Z,17.40
2022-08-27T23:24:23.813Z,17.30
2022-08-27T23:30:26.930Z,17.20
2022-08-27T23:36:29.343Z,17.10
2022-08-27T23:42:31.093Z,17.00
2022-08-27T23:48:32.933Z,16.90
2022-08-27T23:54:34.827Z,16.80
